sensor_id;sensor_type;location;lat;lon;timestamp;P1;durP1;ratioP1;P2;durP2;ratioP2
59336;SDS011;45115;52.002;4.686;2022-08-18T00:02:10;25.77;;;16.02;;
59336;SDS011;45115;52.002;4.686;2022-08-18T00:07:07;26.27;;;16.67;;
59336;SDS011;45115;52.002;4.686;2022-08-18T00:09:40;28.50;;;16.67;;
59336;SDS011;45115;52.002;4.686;2022-08-18T00:12:09;30.30;;;18.00;;
59336;SDS011;45115;52.002;4.686;2022-08-18T00:14:39;29.83;;;17.80;;
59336;SDS011;45115;52.002;4.686;2022-08-18T00:17:06;28.88;;;18.13;;
59336;SDS011;45115;52.002;4.686;2022-08-18T00:19:34;27.27;;;16.92;;
59336;SDS011;45115;52.002;4.686;2022-08-18T00:22:00;30.38;;;17.33;;
59336;SDS011;45115;52.002;4.686;2022-08-18T00:24:27;28.60;;;18.08;;
59336;SDS011;45115;52.002;4.686;2022-08-18T00:26:55;33.03;;;19.10;;
59336;SDS011;45115;52.002;4.686;2022-08-18T00:29:22;29.75;;;18.73;;
59336;SDS011;45115;52.002;4.686;2022-08-18T00:31:49;32.47;;;19.63;;
59336;SDS011;45115;52.002;4.686;2022-08-18T00:34:16;32.00;;;18.95;;
59336;SDS011;45115;52.002;4.686;2022-08-18T00:36:44;34.08;;;20.35;;
59336;SDS011;45115;52.002;4.686;2022-08-18T00:39:10;38.03;;;22.45;;
59336;SDS011;45115;52.002;4.686;2022-08-18T00:41:37;37.60;;;21.95;;
59336;SDS011;45115;52.002;4.686;2022-08-18T00:44:04;44.03;;;25.88;;
59336;SDS011;45115;52.002;4.686;2022-08-18T00:46:32;44.97;;;27.23;;
59336;SDS011;45115;52.002;4.686;2022-08-18T00:49:01;48.97;;;28.90;;
59336;SDS011;45115;52.002;4.686;2022-08-18T00:51:32;47.28;;;27.45;;
59336;SDS011;45115;52.002;4.686;2022-08-18T00:54:05;49.08;;;30.10;;
59336;SDS011;45115;52.002;4.686;2022-08-18T00:56:38;49.28;;;30.27;;
59336;SDS011;45115;52.002;4.686;2022-08-18T00:59:09;48.28;;;29.30;;
59336;SDS011;45115;52.002;4.686;2022-08-18T01:01:39;49.88;;;31.63;;
59336;SDS011;45115;52.002;4.686;2022-08-18T01:04:08;55.00;;;31.50;;
59336;SDS011;45115;52.002;4.686;2022-08-18T01:06:40;54.45;;;31.40;;
59336;SDS011;45115;52.002;4.686;2022-08-18T01:09:12;59.30;;;30.85;;
59336;SDS011;45115;52.002;4.686;2022-08-18T01:11:41;49.03;;;31.48;;
59336;SDS011;45115;52.002;4.686;2022-08-18T01:14:09;46.70;;;30.50;;
59336;SDS011;45115;52.002;4.686;2022-08-18T01:16:40;48.70;;;30.25;;
59336;SDS011;45115;52.002;4.686;2022-08-18T01:19:24;43.22;;;29.08;;
59336;SDS011;45115;52.002;4.686;2022-08-18T01:24:46;39.55;;;24.63;;
59336;SDS011;45115;52.002;4.686;2022-08-18T01:27:32;37.10;;;24.05;;
59336;SDS011;45115;52.002;4.686;2022-08-18T01:30:02;35.10;;;22.92;;
59336;SDS011;45115;52.002;4.686;2022-08-18T01:32:34;39.05;;;23.15;;
59336;SDS011;45115;52.002;4.686;2022-08-18T01:35:01;35.70;;;22.10;;
59336;SDS011;45115;52.002;4.686;2022-08-18T01:37:33;35.75;;;22.73;;
59336;SDS011;45115;52.002;4.686;2022-08-18T01:40:02;38.88;;;24.08;;
59336;SDS011;45115;52.002;4.686;2022-08-18T01:42:30;37.67;;;23.98;;
59336;SDS011;45115;52.002;4.686;2022-08-18T01:44:57;34.92;;;22.75;;
59336;SDS011;45115;52.002;4.686;2022-08-18T01:47:23;35.10;;;21.88;;
59336;SDS011;45115;52.002;4.686;2022-08-18T01:49:50;36.15;;;24.55;;
59336;SDS011;45115;52.002;4.686;2022-08-18T01:52:18;40.03;;;26.17;;
59336;SDS011;45115;52.002;4.686;2022-08-18T01:54:46;43.38;;;29.45;;
59336;SDS011;45115;52.002;4.686;2022-08-18T01:57:14;44.50;;;29.98;;
59336;SDS011;45115;52.002;4.686;2022-08-18T01:59:41;44.28;;;29.35;;
59336;SDS011;45115;52.002;4.686;2022-08-18T02:02:09;45.75;;;29.67;;
59336;SDS011;45115;52.002;4.686;2022-08-18T02:04:39;41.97;;;28.15;;
59336;SDS011;45115;52.002;4.686;2022-08-18T02:07:08;45.78;;;28.13;;
59336;SDS011;45115;52.002;4.686;2022-08-18T02:09:37;44.58;;;28.45;;
59336;SDS011;45115;52.002;4.686;2022-08-18T02:12:05;41.17;;;28.63;;
59336;SDS011;45115;52.002;4.686;2022-08-18T02:14:34;44.10;;;28.52;;
59336;SDS011;45115;52.002;4.686;2022-08-18T02:17:02;46.05;;;29.67;;
59336;SDS011;45115;52.002;4.686;2022-08-18T02:19:32;49.10;;;30.45;;
59336;SDS011;45115;52.002;4.686;2022-08-18T02:22:00;43.30;;;27.52;;
59336;SDS011;45115;52.002;4.686;2022-08-18T02:24:27;39.60;;;27.30;;
59336;SDS011;45115;52.002;4.686;2022-08-18T02:26:53;39.90;;;26.55;;
59336;SDS011;45115;52.002;4.686;2022-08-18T02:29:20;41.42;;;28.05;;
59336;SDS011;45115;52.002;4.686;2022-08-18T02:31:48;45.85;;;29.90;;
59336;SDS011;45115;52.002;4.686;2022-08-18T02:34:15;45.50;;;29.67;;
59336;SDS011;45115;52.002;4.686;2022-08-18T02:36:41;49.30;;;33.00;;
59336;SDS011;45115;52.002;4.686;2022-08-18T02:39:08;53.70;;;36.08;;
59336;SDS011;45115;52.002;4.686;2022-08-18T02:41:35;50.63;;;33.55;;
59336;SDS011;45115;52.002;4.686;2022-08-18T02:44:01;57.00;;;36.33;;
59336;SDS011;45115;52.002;4.686;2022-08-18T02:46:29;55.05;;;36.65;;
59336;SDS011;45115;52.002;4.686;2022-08-18T02:48:57;53.97;;;33.60;;
59336;SDS011;45115;52.002;4.686;2022-08-18T02:51:24;52.10;;;33.95;;
59336;SDS011;45115;52.002;4.686;2022-08-18T02:53:51;52.50;;;33.75;;
59336;SDS011;45115;52.002;4.686;2022-08-18T02:56:18;53.58;;;34.95;;
59336;SDS011;45115;52.002;4.686;2022-08-18T02:58:50;49.17;;;33.67;;
59336;SDS011;45115;52.002;4.686;2022-08-18T03:01:18;47.70;;;33.72;;
59336;SDS011;45115;52.002;4.686;2022-08-18T03:03:45;51.25;;;34.65;;
59336;SDS011;45115;52.002;4.686;2022-08-18T03:06:14;51.95;;;34.60;;
59336;SDS011;45115;52.002;4.686;2022-08-18T03:08:41;53.20;;;35.85;;
59336;SDS011;45115;52.002;4.686;2022-08-18T03:11:08;55.97;;;36.33;;
59336;SDS011;45115;52.002;4.686;2022-08-18T03:13:35;53.38;;;33.75;;
59336;SDS011;45115;52.002;4.686;2022-08-18T03:16:02;58.63;;;40.20;;
59336;SDS011;45115;52.002;4.686;2022-08-18T03:18:28;54.25;;;36.45;;
59336;SDS011;45115;52.002;4.686;2022-08-18T03:20:55;49.20;;;33.42;;
59336;SDS011;45115;52.002;4.686;2022-08-18T03:23:24;52.35;;;33.10;;
59336;SDS011;45115;52.002;4.686;2022-08-18T03:25:52;44.92;;;31.33;;
59336;SDS011;45115;52.002;4.686;2022-08-18T03:28:18;51.83;;;34.20;;
59336;SDS011;45115;52.002;4.686;2022-08-18T03:30:46;54.65;;;34.90;;
59336;SDS011;45115;52.002;4.686;2022-08-18T03:33:13;47.88;;;33.08;;
59336;SDS011;45115;52.002;4.686;2022-08-18T03:35:39;47.25;;;31.88;;
59336;SDS011;45115;52.002;4.686;2022-08-18T03:38:06;48.00;;;33.47;;
59336;SDS011;45115;52.002;4.686;2022-08-18T03:40:34;50.22;;;34.92;;
59336;SDS011;45115;52.002;4.686;2022-08-18T03:43:02;44.78;;;31.67;;
59336;SDS011;45115;52.002;4.686;2022-08-18T03:45:31;51.88;;;34.75;;
59336;SDS011;45115;52.002;4.686;2022-08-18T03:47:58;49.88;;;33.20;;
59336;SDS011;45115;52.002;4.686;2022-08-18T03:50:25;43.75;;;29.88;;
59336;SDS011;45115;52.002;4.686;2022-08-18T03:52:52;45.22;;;30.63;;
59336;SDS011;45115;52.002;4.686;2022-08-18T03:55:19;48.10;;;31.60;;
59336;SDS011;45115;52.002;4.686;2022-08-18T03:57:47;46.70;;;30.60;;
59336;SDS011;45115;52.002;4.686;2022-08-18T04:00:17;43.50;;;28.88;;
59336;SDS011;45115;52.002;4.686;2022-08-18T04:02:43;41.90;;;26.95;;
59336;SDS011;45115;52.002;4.686;2022-08-18T04:05:10;42.22;;;27.38;;
59336;SDS011;45115;52.002;4.686;2022-08-18T04:07:38;39.38;;;26.30;;
59336;SDS011;45115;52.002;4.686;2022-08-18T04:10:05;39.65;;;27.08;;
59336;SDS011;45115;52.002;4.686;2022-08-18T04:12:32;38.65;;;25.05;;
59336;SDS011;45115;52.002;4.686;2022-08-18T04:15:00;37.90;;;26.13;;
59336;SDS011;45115;52.002;4.686;2022-08-18T04:17:26;38.42;;;24.55;;
59336;SDS011;45115;52.002;4.686;2022-08-18T04:19:54;38.75;;;26.88;;
59336;SDS011;45115;52.002;4.686;2022-08-18T04:22:21;41.03;;;27.15;;
59336;SDS011;45115;52.002;4.686;2022-08-18T04:24:49;43.47;;;28.75;;
59336;SDS011;45115;52.002;4.686;2022-08-18T04:27:16;45.22;;;29.38;;
59336;SDS011;45115;52.002;4.686;2022-08-18T04:29:43;44.05;;;28.48;;
59336;SDS011;45115;52.002;4.686;2022-08-18T04:32:11;41.53;;;27.80;;
59336;SDS011;45115;52.002;4.686;2022-08-18T04:34:38;42.95;;;28.70;;
59336;SDS011;45115;52.002;4.686;2022-08-18T04:37:06;46.42;;;29.50;;
59336;SDS011;45115;52.002;4.686;2022-08-18T04:39:33;46.33;;;29.63;;
59336;SDS011;45115;52.002;4.686;2022-08-18T04:42:00;42.58;;;27.15;;
59336;SDS011;45115;52.002;4.686;2022-08-18T04:44:29;43.00;;;27.42;;
59336;SDS011;45115;52.002;4.686;2022-08-18T04:46:55;43.92;;;25.65;;
59336;SDS011;45115;52.002;4.686;2022-08-18T04:49:24;42.17;;;25.27;;
59336;SDS011;45115;52.002;4.686;2022-08-18T04:51:52;37.20;;;22.98;;
59336;SDS011;45115;52.002;4.686;2022-08-18T04:54:38;37.00;;;22.58;;
59336;SDS011;45115;52.002;4.686;2022-08-18T04:57:06;36.45;;;21.83;;
59336;SDS011;45115;52.002;4.686;2022-08-18T04:59:34;36.28;;;22.25;;
59336;SDS011;45115;52.002;4.686;2022-08-18T05:02:02;32.42;;;20.27;;
59336;SDS011;45115;52.002;4.686;2022-08-18T05:04:34;30.17;;;18.38;;
59336;SDS011;45115;52.002;4.686;2022-08-18T05:07:01;30.38;;;17.55;;
59336;SDS011;45115;52.002;4.686;2022-08-18T05:09:29;32.58;;;18.88;;
59336;SDS011;45115;52.002;4.686;2022-08-18T05:11:57;32.78;;;17.67;;
59336;SDS011;45115;52.002;4.686;2022-08-18T05:14:25;29.20;;;18.65;;
59336;SDS011;45115;52.002;4.686;2022-08-18T05:16:52;30.75;;;18.80;;
59336;SDS011;45115;52.002;4.686;2022-08-18T05:19:19;28.67;;;18.52;;
59336;SDS011;45115;52.002;4.686;2022-08-18T05:21:48;30.63;;;17.88;;
59336;SDS011;45115;52.002;4.686;2022-08-18T05:24:15;31.58;;;19.23;;
59336;SDS011;45115;52.002;4.686;2022-08-18T05:26:43;29.83;;;17.05;;
59336;SDS011;45115;52.002;4.686;2022-08-18T05:29:10;25.38;;;16.50;;
59336;SDS011;45115;52.002;4.686;2022-08-18T05:31:40;23.45;;;14.80;;
59336;SDS011;45115;52.002;4.686;2022-08-18T05:34:07;24.27;;;15.50;;
59336;SDS011;45115;52.002;4.686;2022-08-18T05:36:49;29.13;;;17.70;;
59336;SDS011;45115;52.002;4.686;2022-08-18T05:40:54;28.25;;;17.17;;
59336;SDS011;45115;52.002;4.686;2022-08-18T05:42:45;26.95;;;17.27;;
59336;SDS011;45115;52.002;4.686;2022-08-18T05:45:18;30.65;;;18.58;;
59336;SDS011;45115;52.002;4.686;2022-08-18T05:47:46;31.05;;;20.95;;
59336;SDS011;45115;52.002;4.686;2022-08-18T05:50:19;32.53;;;21.20;;
59336;SDS011;45115;52.002;4.686;2022-08-18T05:52:55;31.42;;;19.65;;
59336;SDS011;45115;52.002;4.686;2022-08-18T05:55:26;30.90;;;20.65;;
59336;SDS011;45115;52.002;4.686;2022-08-18T05:58:16;34.58;;;20.95;;
59336;SDS011;45115;52.002;4.686;2022-08-18T06:00:47;37.03;;;23.23;;
59336;SDS011;45115;52.002;4.686;2022-08-18T06:03:19;34.70;;;22.88;;
59336;SDS011;45115;52.002;4.686;2022-08-18T06:05:51;36.38;;;23.58;;
59336;SDS011;45115;52.002;4.686;2022-08-18T06:08:23;36.67;;;22.35;;
59336;SDS011;45115;52.002;4.686;2022-08-18T06:10:55;37.88;;;24.73;;
59336;SDS011;45115;52.002;4.686;2022-08-18T06:13:22;36.53;;;23.08;;
59336;SDS011;45115;52.002;4.686;2022-08-18T06:15:51;42.33;;;25.13;;
59336;SDS011;45115;52.002;4.686;2022-08-18T06:18:28;39.67;;;24.45;;
59336;SDS011;45115;52.002;4.686;2022-08-18T06:21:14;39.78;;;24.35;;
59336;SDS011;45115;52.002;4.686;2022-08-18T06:23:58;39.90;;;25.02;;
59336;SDS011;45115;52.002;4.686;2022-08-18T06:26:33;42.70;;;24.70;;
59336;SDS011;45115;52.002;4.686;2022-08-18T06:29:10;40.05;;;24.45;;
59336;SDS011;45115;52.002;4.686;2022-08-18T06:31:51;43.03;;;25.88;;
59336;SDS011;45115;52.002;4.686;2022-08-18T06:34:31;42.63;;;25.75;;
59336;SDS011;45115;52.002;4.686;2022-08-18T06:37:08;39.17;;;23.05;;
59336;SDS011;45115;52.002;4.686;2022-08-18T06:39:44;34.97;;;21.85;;
59336;SDS011;45115;52.002;4.686;2022-08-18T06:42:12;36.50;;;21.08;;
59336;SDS011;45115;52.002;4.686;2022-08-18T06:44:46;34.13;;;20.90;;
59336;SDS011;45115;52.002;4.686;2022-08-18T06:49:48;30.35;;;19.25;;
59336;SDS011;45115;52.002;4.686;2022-08-18T06:52:23;34.33;;;18.55;;
59336;SDS011;45115;52.002;4.686;2022-08-18T06:54:55;29.65;;;18.55;;
59336;SDS011;45115;52.002;4.686;2022-08-18T06:57:27;28.70;;;16.70;;
59336;SDS011;45115;52.002;4.686;2022-08-18T06:59:57;23.80;;;15.13;;
59336;SDS011;45115;52.002;4.686;2022-08-18T07:02:30;21.85;;;14.63;;
59336;SDS011;45115;52.002;4.686;2022-08-18T07:05:06;21.15;;;13.13;;
59336;SDS011;45115;52.002;4.686;2022-08-18T07:07:43;18.58;;;11.90;;
59336;SDS011;45115;52.002;4.686;2022-08-18T07:13:05;14.98;;;8.25;;
59336;SDS011;45115;52.002;4.686;2022-08-18T07:15:33;13.10;;;8.02;;
59336;SDS011;45115;52.002;4.686;2022-08-18T07:18:01;15.13;;;8.43;;
59336;SDS011;45115;52.002;4.686;2022-08-18T07:20:29;12.32;;;7.78;;
59336;SDS011;45115;52.002;4.686;2022-08-18T07:22:57;12.40;;;7.75;;
59336;SDS011;45115;52.002;4.686;2022-08-18T07:25:26;13.73;;;8.30;;
59336;SDS011;45115;52.002;4.686;2022-08-18T07:27:56;14.77;;;8.40;;
59336;SDS011;45115;52.002;4.686;2022-08-18T07:30:27;13.18;;;8.20;;
59336;SDS011;45115;52.002;4.686;2022-08-18T07:32:57;15.07;;;7.88;;
59336;SDS011;45115;52.002;4.686;2022-08-18T07:35:29;12.63;;;7.57;;
59336;SDS011;45115;52.002;4.686;2022-08-18T07:38:03;11.05;;;7.55;;
59336;SDS011;45115;52.002;4.686;2022-08-18T07:40:44;12.45;;;6.90;;
59336;SDS011;45115;52.002;4.686;2022-08-18T07:43:19;10.82;;;7.00;;
59336;SDS011;45115;52.002;4.686;2022-08-18T07:45:51;11.25;;;6.40;;
59336;SDS011;45115;52.002;4.686;2022-08-18T07:48:23;9.98;;;5.70;;
59336;SDS011;45115;52.002;4.686;2022-08-18T07:50:56;9.43;;;5.97;;
59336;SDS011;45115;52.002;4.686;2022-08-18T07:53:29;8.73;;;5.43;;
59336;SDS011;45115;52.002;4.686;2022-08-18T07:56:06;7.13;;;5.15;;
59336;SDS011;45115;52.002;4.686;2022-08-18T07:58:43;5.18;;;4.43;;
59336;SDS011;45115;52.002;4.686;2022-08-18T08:01:17;5.07;;;4.20;;
59336;SDS011;45115;52.002;4.686;2022-08-18T08:03:52;6.93;;;4.20;;
59336;SDS011;45115;52.002;4.686;2022-08-18T08:06:27;8.07;;;4.50;;
59336;SDS011;45115;52.002;4.686;2022-08-18T08:09:00;6.93;;;4.60;;
59336;SDS011;45115;52.002;4.686;2022-08-18T08:11:37;6.15;;;4.32;;
59336;SDS011;45115;52.002;4.686;2022-08-18T08:16:50;6.93;;;4.20;;
59336;SDS011;45115;52.002;4.686;2022-08-18T08:19:30;8.27;;;5.00;;
59336;SDS011;45115;52.002;4.686;2022-08-18T08:22:07;7.28;;;4.88;;
59336;SDS011;45115;52.002;4.686;2022-08-18T08:24:43;8.52;;;4.35;;
59336;SDS011;45115;52.002;4.686;2022-08-18T08:27:21;7.70;;;5.00;;
59336;SDS011;45115;52.002;4.686;2022-08-18T08:29:56;7.00;;;4.80;;
59336;SDS011;45115;52.002;4.686;2022-08-18T08:32:29;6.68;;;4.80;;
59336;SDS011;45115;52.002;4.686;2022-08-18T08:35:00;7.40;;;4.80;;
59336;SDS011;45115;52.002;4.686;2022-08-18T08:37:32;4.97;;;4.25;;
59336;SDS011;45115;52.002;4.686;2022-08-18T08:40:04;6.50;;;4.30;;
59336;SDS011;45115;52.002;4.686;2022-08-18T08:42:38;10.05;;;4.97;;
59336;SDS011;45115;52.002;4.686;2022-08-18T08:45:10;8.07;;;4.82;;
59336;SDS011;45115;52.002;4.686;2022-08-18T08:47:43;7.32;;;5.00;;
59336;SDS011;45115;52.002;4.686;2022-08-18T08:50:17;7.57;;;4.93;;
59336;SDS011;45115;52.002;4.686;2022-08-18T08:52:49;6.30;;;4.40;;
59336;SDS011;45115;52.002;4.686;2022-08-18T08:55:21;6.18;;;4.25;;
59336;SDS011;45115;52.002;4.686;2022-08-18T08:57:51;4.93;;;3.67;;
59336;SDS011;45115;52.002;4.686;2022-08-18T09:00:23;4.18;;;3.20;;
59336;SDS011;45115;52.002;4.686;2022-08-18T09:02:57;5.40;;;3.17;;
59336;SDS011;45115;52.002;4.686;2022-08-18T09:05:33;4.45;;;3.28;;
59336;SDS011;45115;52.002;4.686;2022-08-18T09:08:21;5.00;;;3.30;;
59336;SDS011;45115;52.002;4.686;2022-08-18T09:11:18;4.10;;;3.70;;
59336;SDS011;45115;52.002;4.686;2022-08-18T09:13:58;4.55;;;3.53;;
59336;SDS011;45115;52.002;4.686;2022-08-18T09:16:57;5.78;;;3.58;;
59336;SDS011;45115;52.002;4.686;2022-08-18T09:19:45;8.18;;;3.75;;
59336;SDS011;45115;52.002;4.686;2022-08-18T09:22:25;4.03;;;3.38;;
59336;SDS011;45115;52.002;4.686;2022-08-18T09:25:01;4.57;;;3.17;;
59336;SDS011;45115;52.002;4.686;2022-08-18T09:27:36;5.20;;;3.63;;
59336;SDS011;45115;52.002;4.686;2022-08-18T09:30:07;5.28;;;3.40;;
59336;SDS011;45115;52.002;4.686;2022-08-18T09:36:13;4.40;;;2.80;;
59336;SDS011;45115;52.002;4.686;2022-08-18T09:38:50;4.22;;;3.40;;
59336;SDS011;45115;52.002;4.686;2022-08-18T09:41:39;5.72;;;3.40;;
59336;SDS011;45115;52.002;4.686;2022-08-18T09:47:56;6.18;;;3.67;;
59336;SDS011;45115;52.002;4.686;2022-08-18T09:50:37;4.05;;;3.63;;
59336;SDS011;45115;52.002;4.686;2022-08-18T09:53:31;4.70;;;3.97;;
59336;SDS011;45115;52.002;4.686;2022-08-18T09:56:02;9.02;;;4.25;;
59336;SDS011;45115;52.002;4.686;2022-08-18T10:04:18;10.20;;;6.55;;
59336;SDS011;45115;52.002;4.686;2022-08-18T10:10:08;9.65;;;6.85;;
59336;SDS011;45115;52.002;4.686;2022-08-18T10:12:50;9.05;;;7.20;;
59336;SDS011;45115;52.002;4.686;2022-08-18T10:15:30;6.45;;;5.50;;
59336;SDS011;45115;52.002;4.686;2022-08-18T10:18:05;8.20;;;5.75;;
59336;SDS011;45115;52.002;4.686;2022-08-18T10:20:46;5.75;;;5.10;;
59336;SDS011;45115;52.002;4.686;2022-08-18T10:29:41;6.57;;;5.50;;
59336;SDS011;45115;52.002;4.686;2022-08-18T10:32:20;6.43;;;5.28;;
59336;SDS011;45115;52.002;4.686;2022-08-18T10:35:00;6.32;;;5.10;;
59336;SDS011;45115;52.002;4.686;2022-08-18T10:37:29;7.10;;;5.22;;
59336;SDS011;45115;52.002;4.686;2022-08-18T10:40:03;7.82;;;5.40;;
59336;SDS011;45115;52.002;4.686;2022-08-18T10:42:39;6.38;;;4.85;;
59336;SDS011;45115;52.002;4.686;2022-08-18T10:45:09;5.93;;;4.80;;
59336;SDS011;45115;52.002;4.686;2022-08-18T10:47:39;5.28;;;4.78;;
59336;SDS011;45115;52.002;4.686;2022-08-18T10:50:07;5.55;;;4.15;;
59336;SDS011;45115;52.002;4.686;2022-08-18T10:52:56;6.10;;;4.40;;
59336;SDS011;45115;52.002;4.686;2022-08-18T10:55:39;6.20;;;4.28;;
59336;SDS011;45115;52.002;4.686;2022-08-18T10:58:20;4.70;;;4.30;;
59336;SDS011;45115;52.002;4.686;2022-08-18T11:01:12;5.47;;;3.90;;
59336;SDS011;45115;52.002;4.686;2022-08-18T11:03:58;6.65;;;4.05;;
59336;SDS011;45115;52.002;4.686;2022-08-18T11:06:37;5.55;;;4.10;;
59336;SDS011;45115;52.002;4.686;2022-08-18T11:09:07;5.32;;;3.88;;
59336;SDS011;45115;52.002;4.686;2022-08-18T11:11:36;5.07;;;4.10;;
59336;SDS011;45115;52.002;4.686;2022-08-18T11:14:14;6.85;;;4.07;;
59336;SDS011;45115;52.002;4.686;2022-08-18T11:16:54;5.18;;;3.63;;
59336;SDS011;45115;52.002;4.686;2022-08-18T11:19:27;5.82;;;4.22;;
59336;SDS011;45115;52.002;4.686;2022-08-18T11:22:02;5.57;;;4.43;;
59336;SDS011;45115;52.002;4.686;2022-08-18T11:24:30;6.68;;;4.68;;
59336;SDS011;45115;52.002;4.686;2022-08-18T11:27:00;5.85;;;4.07;;
59336;SDS011;45115;52.002;4.686;2022-08-18T11:29:29;7.35;;;4.30;;
59336;SDS011;45115;52.002;4.686;2022-08-18T11:32:03;6.93;;;4.50;;
59336;SDS011;45115;52.002;4.686;2022-08-18T11:34:37;4.70;;;3.97;;
59336;SDS011;45115;52.002;4.686;2022-08-18T11:37:07;4.55;;;4.15;;
59336;SDS011;45115;52.002;4.686;2022-08-18T11:39:42;6.25;;;4.63;;
59336;SDS011;45115;52.002;4.686;2022-08-18T11:42:14;5.07;;;4.00;;
59336;SDS011;45115;52.002;4.686;2022-08-18T11:44:43;5.70;;;3.88;;
59336;SDS011;45115;52.002;4.686;2022-08-18T11:47:14;4.55;;;3.80;;
59336;SDS011;45115;52.002;4.686;2022-08-18T11:49:51;5.18;;;3.88;;
59336;SDS011;45115;52.002;4.686;2022-08-18T11:52:23;5.10;;;4.28;;
59336;SDS011;45115;52.002;4.686;2022-08-18T11:54:57;4.82;;;4.30;;
59336;SDS011;45115;52.002;4.686;2022-08-18T11:57:27;5.78;;;3.97;;
59336;SDS011;45115;52.002;4.686;2022-08-18T12:03:03;4.68;;;3.85;;
59336;SDS011;45115;52.002;4.686;2022-08-18T12:05:39;5.18;;;3.80;;
59336;SDS011;45115;52.002;4.686;2022-08-18T12:08:15;6.32;;;4.30;;
59336;SDS011;45115;52.002;4.686;2022-08-18T12:10:44;8.55;;;5.57;;
59336;SDS011;45115;52.002;4.686;2022-08-18T12:13:19;6.15;;;4.60;;
59336;SDS011;45115;52.002;4.686;2022-08-18T12:15:47;7.15;;;4.30;;
59336;SDS011;45115;52.002;4.686;2022-08-18T12:18:32;8.27;;;4.60;;
59336;SDS011;45115;52.002;4.686;2022-08-18T12:20:59;7.68;;;4.57;;
59336;SDS011;45115;52.002;4.686;2022-08-18T12:23:26;5.55;;;4.18;;
59336;SDS011;45115;52.002;4.686;2022-08-18T12:25:54;6.35;;;5.40;;
59336;SDS011;45115;52.002;4.686;2022-08-18T12:28:21;7.90;;;4.38;;
59336;SDS011;45115;52.002;4.686;2022-08-18T12:30:47;6.53;;;4.57;;
59336;SDS011;45115;52.002;4.686;2022-08-18T12:33:14;5.47;;;4.68;;
59336;SDS011;45115;52.002;4.686;2022-08-18T12:35:41;5.97;;;4.43;;
59336;SDS011;45115;52.002;4.686;2022-08-18T12:38:08;6.47;;;4.57;;
59336;SDS011;45115;52.002;4.686;2022-08-18T12:40:35;6.57;;;4.60;;
59336;SDS011;45115;52.002;4.686;2022-08-18T12:43:03;9.80;;;7.25;;
59336;SDS011;45115;52.002;4.686;2022-08-18T12:45:30;8.70;;;6.32;;
59336;SDS011;45115;52.002;4.686;2022-08-18T12:47:56;8.93;;;6.15;;
59336;SDS011;45115;52.002;4.686;2022-08-18T12:50:26;8.77;;;6.45;;
59336;SDS011;45115;52.002;4.686;2022-08-18T12:52:53;8.50;;;5.72;;
59336;SDS011;45115;52.002;4.686;2022-08-18T12:55:19;9.18;;;6.28;;
59336;SDS011;45115;52.002;4.686;2022-08-18T12:57:46;9.63;;;6.10;;
59336;SDS011;45115;52.002;4.686;2022-08-18T13:00:15;9.57;;;5.82;;
59336;SDS011;45115;52.002;4.686;2022-08-18T13:02:42;9.48;;;7.47;;
59336;SDS011;45115;52.002;4.686;2022-08-18T13:05:08;7.53;;;5.90;;
59336;SDS011;45115;52.002;4.686;2022-08-18T13:07:35;11.43;;;7.30;;
59336;SDS011;45115;52.002;4.686;2022-08-18T13:10:02;8.77;;;6.20;;
59336;SDS011;45115;52.002;4.686;2022-08-18T13:12:29;7.32;;;5.45;;
59336;SDS011;45115;52.002;4.686;2022-08-18T13:14:56;7.20;;;4.72;;
59336;SDS011;45115;52.002;4.686;2022-08-18T13:17:24;8.02;;;5.40;;
59336;SDS011;45115;52.002;4.686;2022-08-18T13:19:51;7.78;;;4.72;;
59336;SDS011;45115;52.002;4.686;2022-08-18T13:22:17;6.05;;;4.88;;
59336;SDS011;45115;52.002;4.686;2022-08-18T13:24:44;7.15;;;4.80;;
59336;SDS011;45115;52.002;4.686;2022-08-18T13:27:11;7.57;;;4.60;;
59336;SDS011;45115;52.002;4.686;2022-08-18T13:29:38;6.10;;;4.40;;
59336;SDS011;45115;52.002;4.686;2022-08-18T13:32:05;5.68;;;4.15;;
59336;SDS011;45115;52.002;4.686;2022-08-18T13:34:34;6.65;;;4.00;;
59336;SDS011;45115;52.002;4.686;2022-08-18T13:37:01;6.78;;;4.10;;
59336;SDS011;45115;52.002;4.686;2022-08-18T13:39:29;5.90;;;4.10;;
59336;SDS011;45115;52.002;4.686;2022-08-18T13:41:55;5.05;;;3.80;;
59336;SDS011;45115;52.002;4.686;2022-08-18T13:44:22;6.38;;;3.53;;
59336;SDS011;45115;52.002;4.686;2022-08-18T13:46:49;6.10;;;4.40;;
59336;SDS011;45115;52.002;4.686;2022-08-18T13:49:16;6.47;;;4.43;;
59336;SDS011;45115;52.002;4.686;2022-08-18T13:51:46;4.57;;;3.97;;
59336;SDS011;45115;52.002;4.686;2022-08-18T13:54:15;5.80;;;4.07;;
59336;SDS011;45115;52.002;4.686;2022-08-18T13:56:45;6.18;;;3.83;;
59336;SDS011;45115;52.002;4.686;2022-08-18T13:59:12;5.13;;;4.00;;
59336;SDS011;45115;52.002;4.686;2022-08-18T14:01:39;4.90;;;4.40;;
59336;SDS011;45115;52.002;4.686;2022-08-18T14:04:05;5.80;;;4.70;;
59336;SDS011;45115;52.002;4.686;2022-08-18T14:06:32;9.25;;;4.57;;
59336;SDS011;45115;52.002;4.686;2022-08-18T14:09:00;5.88;;;4.68;;
59336;SDS011;45115;52.002;4.686;2022-08-18T14:11:27;6.07;;;4.00;;
59336;SDS011;45115;52.002;4.686;2022-08-18T14:13:56;6.95;;;4.18;;
59336;SDS011;45115;52.002;4.686;2022-08-18T14:16:22;7.30;;;4.40;;
59336;SDS011;45115;52.002;4.686;2022-08-18T14:18:50;4.43;;;3.97;;
59336;SDS011;45115;52.002;4.686;2022-08-18T14:21:35;4.50;;;4.00;;
59336;SDS011;45115;52.002;4.686;2022-08-18T14:24:24;6.32;;;4.47;;
59336;SDS011;45115;52.002;4.686;2022-08-18T14:27:08;5.82;;;3.85;;
59336;SDS011;45115;52.002;4.686;2022-08-18T14:29:34;5.45;;;3.97;;
59336;SDS011;45115;52.002;4.686;2022-08-18T14:32:02;6.97;;;4.03;;
59336;SDS011;45115;52.002;4.686;2022-08-18T14:34:29;5.03;;;3.70;;
59336;SDS011;45115;52.002;4.686;2022-08-18T14:36:56;7.25;;;4.22;;
59336;SDS011;45115;52.002;4.686;2022-08-18T14:39:24;5.80;;;4.07;;
59336;SDS011;45115;52.002;4.686;2022-08-18T14:41:51;7.22;;;3.90;;
59336;SDS011;45115;52.002;4.686;2022-08-18T14:44:18;5.53;;;4.18;;
59336;SDS011;45115;52.002;4.686;2022-08-18T14:46:45;5.72;;;4.10;;
59336;SDS011;45115;52.002;4.686;2022-08-18T14:49:11;6.30;;;3.70;;
59336;SDS011;45115;52.002;4.686;2022-08-18T14:51:38;5.95;;;4.20;;
59336;SDS011;45115;52.002;4.686;2022-08-18T14:54:07;7.85;;;4.47;;
59336;SDS011;45115;52.002;4.686;2022-08-18T14:56:35;6.38;;;4.18;;
59336;SDS011;45115;52.002;4.686;2022-08-18T14:59:02;6.25;;;4.68;;
59336;SDS011;45115;52.002;4.686;2022-08-18T15:01:31;5.35;;;4.28;;
59336;SDS011;45115;52.002;4.686;2022-08-18T15:03:58;5.40;;;4.13;;
59336;SDS011;45115;52.002;4.686;2022-08-18T15:06:25;7.28;;;4.50;;
59336;SDS011;45115;52.002;4.686;2022-08-18T15:08:52;8.35;;;4.93;;
59336;SDS011;45115;52.002;4.686;2022-08-18T15:11:19;9.50;;;4.80;;
59336;SDS011;45115;52.002;4.686;2022-08-18T15:13:47;8.75;;;4.90;;
59336;SDS011;45115;52.002;4.686;2022-08-18T15:16:13;8.18;;;5.22;;
59336;SDS011;45115;52.002;4.686;2022-08-18T15:18:41;8.75;;;5.13;;
59336;SDS011;45115;52.002;4.686;2022-08-18T15:21:07;6.28;;;4.78;;
59336;SDS011;45115;52.002;4.686;2022-08-18T15:23:54;9.73;;;5.10;;
59336;SDS011;45115;52.002;4.686;2022-08-18T15:26:38;9.32;;;5.18;;
59336;SDS011;45115;52.002;4.686;2022-08-18T15:29:08;9.18;;;5.53;;
59336;SDS011;45115;52.002;4.686;2022-08-18T15:31:36;11.50;;;5.30;;
59336;SDS011;45115;52.002;4.686;2022-08-18T15:34:04;10.55;;;5.20;;
59336;SDS011;45115;52.002;4.686;2022-08-18T15:36:31;12.38;;;6.93;;